sensor_id;sensor_type;location;lat;lon;timestamp;temperature;humidity
74101;DHT22;62462;52.530;21.682;2023-03-14T00:00:59;11.30;71.20
74101;DHT22;62462;52.530;21.682;2023-03-14T00:03:27;11.30;71.10
74101;DHT22;62462;52.530;21.682;2023-03-14T00:05:53;11.30;70.80
74101;DHT22;62462;52.530;21.682;2023-03-14T00:08:19;11.30;70.60
74101;DHT22;62462;52.530;21.682;2023-03-14T00:10:46;11.30;70.30
74101;DHT22;62462;52.530;21.682;2023-03-14T00:13:12;11.30;70.10
74101;DHT22;62462;52.530;21.682;2023-03-14T00:15:38;11.20;69.70
74101;DHT22;62462;52.530;21.682;2023-03-14T00:18:04;11.20;69.60
74101;DHT22;62462;52.530;21.682;2023-03-14T00:20:29;11.20;69.80
74101;DHT22;62462;52.530;21.682;2023-03-14T00:22:55;11.20;69.20
74101;DHT22;62462;52.530;21.682;2023-03-14T00:25:21;11.20;69.00
74101;DHT22;62462;52.530;21.682;2023-03-14T00:27:46;11.20;68.90
74101;DHT22;62462;52.530;21.682;2023-03-14T00:30:12;11.20;68.70
74101;DHT22;62462;52.530;21.682;2023-03-14T00:32:38;11.20;68.60
74101;DHT22;62462;52.530;21.682;2023-03-14T00:35:04;11.20;68.30
74101;DHT22;62462;52.530;21.682;2023-03-14T00:37:30;11.20;67.80
74101;DHT22;62462;52.530;21.682;2023-03-14T00:39:56;11.20;67.60
74101;DHT22;62462;52.530;21.682;2023-03-14T00:42:21;11.20;67.80
74101;DHT22;62462;52.530;21.682;2023-03-14T00:44:47;11.10;67.00
74101;DHT22;62462;52.530;21.682;2023-03-14T00:47:13;11.20;66.70
74101;DHT22;62462;52.530;21.682;2023-03-14T00:49:38;11.10;67.00
74101;DHT22;62462;52.530;21.682;2023-03-14T00:52:04;11.20;67.10
74101;DHT22;62462;52.530;21.682;2023-03-14T00:54:30;11.20;66.50
74101;DHT22;62462;52.530;21.682;2023-03-14T00:56:56;11.10;66.30
74101;DHT22;62462;52.530;21.682;2023-03-14T00:59:21;11.20;66.60
74101;DHT22;62462;52.530;21.682;2023-03-14T01:01:47;11.10;65.70
74101;DHT22;62462;52.530;21.682;2023-03-14T01:04:13;11.10;65.90
74101;DHT22;62462;52.530;21.682;2023-03-14T01:06:39;11.10;65.60
74101;DHT22;62462;52.530;21.682;2023-03-14T01:09:04;11.10;65.70
74101;DHT22;62462;52.530;21.682;2023-03-14T01:11:32;11.10;65.70
74101;DHT22;62462;52.530;21.682;2023-03-14T01:13:59;11.10;65.30
74101;DHT22;62462;52.530;21.682;2023-03-14T01:16:26;11.10;65.30
74101;DHT22;62462;52.530;21.682;2023-03-14T01:18:53;11.10;65.10
74101;DHT22;62462;52.530;21.682;2023-03-14T01:21:25;11.10;64.90
74101;DHT22;62462;52.530;21.682;2023-03-14T01:23:53;11.10;64.50
74101;DHT22;62462;52.530;21.682;2023-03-14T01:26:22;11.00;64.40
74101;DHT22;62462;52.530;21.682;2023-03-14T01:28:48;11.00;64.60
74101;DHT22;62462;52.530;21.682;2023-03-14T01:31:15;11.00;64.20
74101;DHT22;62462;52.530;21.682;2023-03-14T01:33:41;11.00;64.10
74101;DHT22;62462;52.530;21.682;2023-03-14T01:36:08;11.00;63.90
74101;DHT22;62462;52.530;21.682;2023-03-14T01:38:35;11.00;63.80
74101;DHT22;62462;52.530;21.682;2023-03-14T01:41:02;11.00;63.90
74101;DHT22;62462;52.530;21.682;2023-03-14T01:43:29;11.00;63.60
74101;DHT22;62462;52.530;21.682;2023-03-14T01:51:41;11.00;62.70
74101;DHT22;62462;52.530;21.682;2023-03-14T01:54:13;11.00;62.50
74101;DHT22;62462;52.530;21.682;2023-03-14T01:56:42;11.00;62.40
74101;DHT22;62462;52.530;21.682;2023-03-14T01:59:10;11.00;62.30
74101;DHT22;62462;52.530;21.682;2023-03-14T02:01:36;11.00;62.50
74101;DHT22;62462;52.530;21.682;2023-03-14T02:04:05;10.90;62.00
74101;DHT22;62462;52.530;21.682;2023-03-14T02:07:18;10.90;61.80
74101;DHT22;62462;52.530;21.682;2023-03-14T02:09:24;10.90;61.80
74101;DHT22;62462;52.530;21.682;2023-03-14T02:11:50;10.90;62.90
74101;DHT22;62462;52.530;21.682;2023-03-14T02:14:34;10.90;62.00
74101;DHT22;62462;52.530;21.682;2023-03-14T02:17:01;10.90;62.00
74101;DHT22;62462;52.530;21.682;2023-03-14T02:22:31;10.90;62.30
74101;DHT22;62462;52.530;21.682;2023-03-14T02:27:41;10.80;62.20
74101;DHT22;62462;52.530;21.682;2023-03-14T02:30:28;10.70;62.20
74101;DHT22;62462;52.530;21.682;2023-03-14T02:32:57;10.60;62.40
74101;DHT22;62462;52.530;21.682;2023-03-14T02:35:42;10.60;62.70
74101;DHT22;62462;52.530;21.682;2023-03-14T02:38:35;10.50;62.70
74101;DHT22;62462;52.530;21.682;2023-03-14T02:41:03;10.40;62.60
74101;DHT22;62462;52.530;21.682;2023-03-14T02:43:29;10.30;62.70
74101;DHT22;62462;52.530;21.682;2023-03-14T02:45:55;10.30;63.20
74101;DHT22;62462;52.530;21.682;2023-03-14T02:48:26;10.30;63.10
74101;DHT22;62462;52.530;21.682;2023-03-14T02:50:58;10.20;62.80
74101;DHT22;62462;52.530;21.682;2023-03-14T02:53:33;10.20;62.80
74101;DHT22;62462;52.530;21.682;2023-03-14T02:55:59;10.20;62.60
74101;DHT22;62462;52.530;21.682;2023-03-14T02:58:26;10.20;62.60
74101;DHT22;62462;52.530;21.682;2023-03-14T03:00:52;10.20;62.60
74101;DHT22;62462;52.530;21.682;2023-03-14T03:03:19;10.10;62.40
74101;DHT22;62462;52.530;21.682;2023-03-14T03:05:48;10.20;62.60
74101;DHT22;62462;52.530;21.682;2023-03-14T03:08:16;10.10;62.30
74101;DHT22;62462;52.530;21.682;2023-03-14T03:10:41;10.10;62.20
74101;DHT22;62462;52.530;21.682;2023-03-14T03:13:07;10.10;62.30
74101;DHT22;62462;52.530;21.682;2023-03-14T03:15:33;10.10;62.20
74101;DHT22;62462;52.530;21.682;2023-03-14T03:17:58;10.10;62.10
74101;DHT22;62462;52.530;21.682;2023-03-14T03:20:24;10.00;62.40
74101;DHT22;62462;52.530;21.682;2023-03-14T03:22:50;10.00;62.00
74101;DHT22;62462;52.530;21.682;2023-03-14T03:25:16;10.00;62.50
74101;DHT22;62462;52.530;21.682;2023-03-14T03:27:42;10.00;62.00
74101;DHT22;62462;52.530;21.682;2023-03-14T03:30:08;10.00;61.90
74101;DHT22;62462;52.530;21.682;2023-03-14T03:32:34;10.00;61.80
74101;DHT22;62462;52.530;21.682;2023-03-14T03:35:03;10.00;62.00
74101;DHT22;62462;52.530;21.682;2023-03-14T03:37:31;9.90;62.00
74101;DHT22;62462;52.530;21.682;2023-03-14T03:39:57;9.90;61.60
74101;DHT22;62462;52.530;21.682;2023-03-14T03:42:22;9.90;61.70
74101;DHT22;62462;52.530;21.682;2023-03-14T03:44:48;9.90;62.10
74101;DHT22;62462;52.530;21.682;2023-03-14T03:47:15;9.80;61.80
74101;DHT22;62462;52.530;21.682;2023-03-14T03:49:41;9.80;61.80
74101;DHT22;62462;52.530;21.682;2023-03-14T03:52:06;9.80;62.00
74101;DHT22;62462;52.530;21.682;2023-03-14T03:54:32;9.80;61.80
74101;DHT22;62462;52.530;21.682;2023-03-14T03:56:58;9.70;62.10
74101;DHT22;62462;52.530;21.682;2023-03-14T03:59:24;9.70;62.20
74101;DHT22;62462;52.530;21.682;2023-03-14T04:01:49;9.70;62.00
74101;DHT22;62462;52.530;21.682;2023-03-14T04:04:15;9.70;62.20
74101;DHT22;62462;52.530;21.682;2023-03-14T04:06:41;9.70;62.20
74101;DHT22;62462;52.530;21.682;2023-03-14T04:09:11;9.60;62.10
74101;DHT22;62462;52.530;21.682;2023-03-14T04:11:36;9.60;62.60
74101;DHT22;62462;52.530;21.682;2023-03-14T04:14:03;9.60;62.40
74101;DHT22;62462;52.530;21.682;2023-03-14T04:16:29;9.60;62.30
74101;DHT22;62462;52.530;21.682;2023-03-14T04:18:57;9.60;62.30
74101;DHT22;62462;52.530;21.682;2023-03-14T04:21:23;9.60;62.70
74101;DHT22;62462;52.530;21.682;2023-03-14T04:23:49;9.60;62.20
74101;DHT22;62462;52.530;21.682;2023-03-14T04:26:15;9.60;62.20
74101;DHT22;62462;52.530;21.682;2023-03-14T04:28:41;9.60;62.30
74101;DHT22;62462;52.530;21.682;2023-03-14T04:31:11;9.60;62.20
74101;DHT22;62462;52.530;21.682;2023-03-14T04:33:38;9.60;62.20
74101;DHT22;62462;52.530;21.682;2023-03-14T04:36:05;9.60;61.90
74101;DHT22;62462;52.530;21.682;2023-03-14T04:38:32;9.60;61.90
74101;DHT22;62462;52.530;21.682;2023-03-14T04:40:58;9.60;62.10
74101;DHT22;62462;52.530;21.682;2023-03-14T04:43:24;9.60;61.80
74101;DHT22;62462;52.530;21.682;2023-03-14T04:45:54;9.60;61.80
74101;DHT22;62462;52.530;21.682;2023-03-14T04:48:20;9.60;61.50
74101;DHT22;62462;52.530;21.682;2023-03-14T04:50:47;9.60;61.60
74101;DHT22;62462;52.530;21.682;2023-03-14T04:53:13;9.60;61.80
74101;DHT22;62462;52.530;21.682;2023-03-14T04:55:39;9.70;61.70
74101;DHT22;62462;52.530;21.682;2023-03-14T04:58:05;9.60;61.90
74101;DHT22;62462;52.530;21.682;2023-03-14T05:00:31;9.60;61.80
74101;DHT22;62462;52.530;21.682;2023-03-14T05:02:57;9.60;61.60
74101;DHT22;62462;52.530;21.682;2023-03-14T05:05:22;9.60;62.00
74101;DHT22;62462;52.530;21.682;2023-03-14T05:07:48;9.60;61.40
74101;DHT22;62462;52.530;21.682;2023-03-14T05:10:14;9.60;62.00
74101;DHT22;62462;52.530;21.682;2023-03-14T05:12:39;9.60;62.00
74101;DHT22;62462;52.530;21.682;2023-03-14T05:15:06;9.60;61.80
74101;DHT22;62462;52.530;21.682;2023-03-14T05:17:35;9.60;61.60
74101;DHT22;62462;52.530;21.682;2023-03-14T05:20:01;9.70;62.00
74101;DHT22;62462;52.530;21.682;2023-03-14T05:22:28;9.70;61.90
74101;DHT22;62462;52.530;21.682;2023-03-14T05:24:53;9.70;61.50
74101;DHT22;62462;52.530;21.682;2023-03-14T05:27:22;9.80;61.30
74101;DHT22;62462;52.530;21.682;2023-03-14T05:29:48;9.80;61.20
74101;DHT22;62462;52.530;21.682;2023-03-14T05:32:14;9.90;61.20
74101;DHT22;62462;52.530;21.682;2023-03-14T05:34:39;9.90;60.90
74101;DHT22;62462;52.530;21.682;2023-03-14T05:37:05;9.90;60.50
74101;DHT22;62462;52.530;21.682;2023-03-14T05:39:31;10.00;60.50
74101;DHT22;62462;52.530;21.682;2023-03-14T05:41:56;10.00;59.90
74101;DHT22;62462;52.530;21.682;2023-03-14T05:44:22;10.00;60.20
74101;DHT22;62462;52.530;21.682;2023-03-14T05:46:48;10.00;60.40
74101;DHT22;62462;52.530;21.682;2023-03-14T05:49:14;10.10;60.20
74101;DHT22;62462;52.530;21.682;2023-03-14T05:51:39;10.10;59.90
74101;DHT22;62462;52.530;21.682;2023-03-14T05:54:05;10.20;60.30
74101;DHT22;62462;52.530;21.682;2023-03-14T05:56:32;10.20;59.60
74101;DHT22;62462;52.530;21.682;2023-03-14T05:58:58;10.20;59.60
74101;DHT22;62462;52.530;21.682;2023-03-14T06:01:23;10.20;59.60
74101;DHT22;62462;52.530;21.682;2023-03-14T06:03:49;10.20;59.70
74101;DHT22;62462;52.530;21.682;2023-03-14T06:06:15;10.30;59.70
74101;DHT22;62462;52.530;21.682;2023-03-14T06:08:42;10.30;59.40
74101;DHT22;62462;52.530;21.682;2023-03-14T06:11:07;10.40;59.60
74101;DHT22;62462;52.530;21.682;2023-03-14T06:13:34;10.50;59.30
74101;DHT22;62462;52.530;21.682;2023-03-14T06:16:00;10.50;59.30
74101;DHT22;62462;52.530;21.682;2023-03-14T06:18:25;10.50;59.30
74101;DHT22;62462;52.530;21.682;2023-03-14T06:20:55;10.60;59.10
74101;DHT22;62462;52.530;21.682;2023-03-14T06:23:21;10.70;58.10
74101;DHT22;62462;52.530;21.682;2023-03-14T06:25:47;10.90;58.10
74101;DHT22;62462;52.530;21.682;2023-03-14T06:28:13;10.90;57.70
74101;DHT22;62462;52.530;21.682;2023-03-14T06:30:39;10.90;58.30
74101;DHT22;62462;52.530;21.682;2023-03-14T06:33:04;11.00;58.30
74101;DHT22;62462;52.530;21.682;2023-03-14T06:35:30;11.20;57.50
74101;DHT22;62462;52.530;21.682;2023-03-14T06:37:56;11.30;57.10
74101;DHT22;62462;52.530;21.682;2023-03-14T06:40:22;11.30;57.00
74101;DHT22;62462;52.530;21.682;2023-03-14T06:42:48;11.30;57.00
74101;DHT22;62462;52.530;21.682;2023-03-14T06:45:14;11.30;57.10
74101;DHT22;62462;52.530;21.682;2023-03-14T06:47:39;11.30;57.40
74101;DHT22;62462;52.530;21.682;2023-03-14T06:50:07;11.20;57.60
74101;DHT22;62462;52.530;21.682;2023-03-14T06:52:33;11.20;57.50
74101;DHT22;62462;52.530;21.682;2023-03-14T06:54:59;11.20;57.50
74101;DHT22;62462;52.530;21.682;2023-03-14T06:57:24;11.20;57.70
74101;DHT22;62462;52.530;21.682;2023-03-14T06:59:50;11.20;57.50
74101;DHT22;62462;52.530;21.682;2023-03-14T07:02:16;11.20;57.30
74101;DHT22;62462;52.530;21.682;2023-03-14T07:04:42;11.20;57.60
74101;DHT22;62462;52.530;21.682;2023-03-14T07:07:08;11.20;57.90
74101;DHT22;62462;52.530;21.682;2023-03-14T07:09:34;11.30;57.70
74101;DHT22;62462;52.530;21.682;2023-03-14T07:12:00;11.30;57.50
74101;DHT22;62462;52.530;21.682;2023-03-14T07:14:26;11.30;57.20
74101;DHT22;62462;52.530;21.682;2023-03-14T07:16:52;11.40;57.80
74101;DHT22;62462;52.530;21.682;2023-03-14T07:19:18;11.40;57.20
74101;DHT22;62462;52.530;21.682;2023-03-14T07:21:43;11.50;57.00
74101;DHT22;62462;52.530;21.682;2023-03-14T07:24:09;11.60;57.10
74101;DHT22;62462;52.530;21.682;2023-03-14T07:26:35;11.80;56.30
74101;DHT22;62462;52.530;21.682;2023-03-14T07:29:01;12.00;56.40
74101;DHT22;62462;52.530;21.682;2023-03-14T07:31:28;12.30;56.40
74101;DHT22;62462;52.530;21.682;2023-03-14T07:33:54;12.60;55.10
74101;DHT22;62462;52.530;21.682;2023-03-14T07:36:20;12.80;54.00
74101;DHT22;62462;52.530;21.682;2023-03-14T07:38:46;12.80;53.10
74101;DHT22;62462;52.530;21.682;2023-03-14T07:41:13;12.70;53.70
74101;DHT22;62462;52.530;21.682;2023-03-14T07:43:40;12.60;53.40
74101;DHT22;62462;52.530;21.682;2023-03-14T07:46:06;12.50;53.60
74101;DHT22;62462;52.530;21.682;2023-03-14T07:48:32;12.40;54.70
74101;DHT22;62462;52.530;21.682;2023-03-14T07:51:17;12.40;55.80
74101;DHT22;62462;52.530;21.682;2023-03-14T07:53:43;12.40;54.50
74101;DHT22;62462;52.530;21.682;2023-03-14T07:56:10;12.40;53.60
74101;DHT22;62462;52.530;21.682;2023-03-14T07:58:35;12.40;54.50
74101;DHT22;62462;52.530;21.682;2023-03-14T08:01:01;12.60;53.60
74101;DHT22;62462;52.530;21.682;2023-03-14T08:03:27;12.70;53.80
74101;DHT22;62462;52.530;21.682;2023-03-14T08:05:53;12.80;53.30
74101;DHT22;62462;52.530;21.682;2023-03-14T08:08:19;13.00;53.10
74101;DHT22;62462;52.530;21.682;2023-03-14T08:10:45;13.20;53.50
74101;DHT22;62462;52.530;21.682;2023-03-14T08:13:12;13.40;52.60
74101;DHT22;62462;52.530;21.682;2023-03-14T08:15:37;13.70;51.80
74101;DHT22;62462;52.530;21.682;2023-03-14T08:18:04;13.80;51.70
74101;DHT22;62462;52.530;21.682;2023-03-14T08:20:30;14.10;51.90
74101;DHT22;62462;52.530;21.682;2023-03-14T08:23:00;14.30;50.70
74101;DHT22;62462;52.530;21.682;2023-03-14T08:25:27;14.50;50.00
74101;DHT22;62462;52.530;21.682;2023-03-14T08:27:54;14.50;49.10
74101;DHT22;62462;52.530;21.682;2023-03-14T08:30:21;14.50;49.10
74101;DHT22;62462;52.530;21.682;2023-03-14T08:32:47;14.40;49.70
74101;DHT22;62462;52.530;21.682;2023-03-14T08:35:13;14.50;49.70
74101;DHT22;62462;52.530;21.682;2023-03-14T08:37:39;14.60;49.30
74101;DHT22;62462;52.530;21.682;2023-03-14T08:40:06;14.80;48.90
74101;DHT22;62462;52.530;21.682;2023-03-14T08:42:36;14.90;47.90
74101;DHT22;62462;52.530;21.682;2023-03-14T08:45:02;15.00;49.00
74101;DHT22;62462;52.530;21.682;2023-03-14T08:47:29;15.20;48.60
74101;DHT22;62462;52.530;21.682;2023-03-14T08:49:55;15.30;48.00
74101;DHT22;62462;52.530;21.682;2023-03-14T08:52:21;15.40;48.00
74101;DHT22;62462;52.530;21.682;2023-03-14T08:54:47;15.70;47.70
74101;DHT22;62462;52.530;21.682;2023-03-14T08:57:13;15.90;47.70
74101;DHT22;62462;52.530;21.682;2023-03-14T08:59:39;16.00;47.70
74101;DHT22;62462;52.530;21.682;2023-03-14T09:02:05;16.20;45.60
74101;DHT22;62462;52.530;21.682;2023-03-14T09:04:32;16.20;45.60
74101;DHT22;62462;52.530;21.682;2023-03-14T09:06:59;16.20;46.00
74101;DHT22;62462;52.530;21.682;2023-03-14T09:09:26;16.20;46.30
74101;DHT22;62462;52.530;21.682;2023-03-14T09:11:56;16.30;45.70
74101;DHT22;62462;52.530;21.682;2023-03-14T09:14:22;16.30;46.00
74101;DHT22;62462;52.530;21.682;2023-03-14T09:16:48;16.40;45.00
74101;DHT22;62462;52.530;21.682;2023-03-14T09:19:14;16.50;45.80
74101;DHT22;62462;52.530;21.682;2023-03-14T09:21:40;16.60;44.90
74101;DHT22;62462;52.530;21.682;2023-03-14T09:24:06;16.70;46.80
74101;DHT22;62462;52.530;21.682;2023-03-14T09:26:32;17.00;45.80
74101;DHT22;62462;52.530;21.682;2023-03-14T09:28:58;17.20;44.40
74101;DHT22;62462;52.530;21.682;2023-03-14T09:31:24;17.10;44.30
74101;DHT22;62462;52.530;21.682;2023-03-14T09:33:50;17.00;44.80
74101;DHT22;62462;52.530;21.682;2023-03-14T09:36:16;16.90;44.10
74101;DHT22;62462;52.530;21.682;2023-03-14T09:38:42;16.60;44.60
74101;DHT22;62462;52.530;21.682;2023-03-14T09:41:35;16.40;44.60
74101;DHT22;62462;52.530;21.682;2023-03-14T09:44:08;16.20;44.80
74101;DHT22;62462;52.530;21.682;2023-03-14T09:46:37;16.20;45.20
74101;DHT22;62462;52.530;21.682;2023-03-14T09:51:42;16.60;45.10
74101;DHT22;62462;52.530;21.682;2023-03-14T09:54:24;16.90;44.30
74101;DHT22;62462;52.530;21.682;2023-03-14T09:56:52;16.90;44.20
74101;DHT22;62462;52.530;21.682;2023-03-14T09:59:19;17.00;44.50
74101;DHT22;62462;52.530;21.682;2023-03-14T10:01:45;17.00;44.10
74101;DHT22;62462;52.530;21.682;2023-03-14T10:04:15;17.20;44.40
74101;DHT22;62462;52.530;21.682;2023-03-14T10:06:43;17.50;43.90
74101;DHT22;62462;52.530;21.682;2023-03-14T10:09:17;17.60;43.10
74101;DHT22;62462;52.530;21.682;2023-03-14T10:11:45;17.60;42.40
74101;DHT22;62462;52.530;21.682;2023-03-14T10:14:11;17.60;43.10
74101;DHT22;62462;52.530;21.682;2023-03-14T10:16:44;17.50;43.40
74101;DHT22;62462;52.530;21.682;2023-03-14T10:19:15;17.60;43.20
74101;DHT22;62462;52.530;21.682;2023-03-14T10:21:43;17.40;43.10
74101;DHT22;62462;52.530;21.682;2023-03-14T10:26:48;17.10;44.70
74101;DHT22;62462;52.530;21.682;2023-03-14T10:29:15;17.30;44.10
74101;DHT22;62462;52.530;21.682;2023-03-14T10:31:54;17.40;43.80
74101;DHT22;62462;52.530;21.682;2023-03-14T10:34:39;17.40;43.60
74101;DHT22;62462;52.530;21.682;2023-03-14T10:37:22;17.20;43.50
74101;DHT22;62462;52.530;21.682;2023-03-14T10:39:53;17.20;44.30
74101;DHT22;62462;52.530;21.682;2023-03-14T10:42:29;17.40;43.30
74101;DHT22;62462;52.530;21.682;2023-03-14T10:47:52;17.60;42.90
74101;DHT22;62462;52.530;21.682;2023-03-14T10:50:28;17.70;42.70
74101;DHT22;62462;52.530;21.682;2023-03-14T10:52:55;17.70;42.90
74101;DHT22;62462;52.530;21.682;2023-03-14T10:55:24;17.60;42.90
74101;DHT22;62462;52.530;21.682;2023-03-14T10:57:50;17.60;42.90
74101;DHT22;62462;52.530;21.682;2023-03-14T11:00:22;17.50;42.80
74101;DHT22;62462;52.530;21.682;2023-03-14T11:03:11;17.40;43.10
74101;DHT22;62462;52.530;21.682;2023-03-14T11:05:57;17.40;43.90
74101;DHT22;62462;52.530;21.682;2023-03-14T11:08:42;17.30;44.10
74101;DHT22;62462;52.530;21.682;2023-03-14T11:11:29;17.40;44.60
74101;DHT22;62462;52.530;21.682;2023-03-14T11:17:08;17.50;43.30
74101;DHT22;62462;52.530;21.682;2023-03-14T11:19:57;17.70;42.90
74101;DHT22;62462;52.530;21.682;2023-03-14T11:30:53;18.60;41.60
74101;DHT22;62462;52.530;21.682;2023-03-14T11:35:57;18.40;41.40
74101;DHT22;62462;52.530;21.682;2023-03-14T11:41:00;18.10;42.50
74101;DHT22;62462;52.530;21.682;2023-03-14T11:43:48;18.00;42.60
74101;DHT22;62462;52.530;21.682;2023-03-14T11:46:39;17.80;42.70
74101;DHT22;62462;52.530;21.682;2023-03-14T11:51:46;17.60;43.30
74101;DHT22;62462;52.530;21.682;2023-03-14T11:54:32;17.40;44.30
74101;DHT22;62462;52.530;21.682;2023-03-14T11:57:01;17.40;44.40
74101;DHT22;62462;52.530;21.682;2023-03-14T12:03:07;17.30;44.20
74101;DHT22;62462;52.530;21.682;2023-03-14T12:10:43;17.30;44.80
74101;DHT22;62462;52.530;21.682;2023-03-14T12:13:12;17.20;44.90
74101;DHT22;62462;52.530;21.682;2023-03-14T12:15:41;17.30;45.00
74101;DHT22;62462;52.530;21.682;2023-03-14T12:20:53;17.60;44.60
74101;DHT22;62462;52.530;21.682;2023-03-14T12:23:20;17.60;44.20
74101;DHT22;62462;52.530;21.682;2023-03-14T12:25:46;17.50;44.40
74101;DHT22;62462;52.530;21.682;2023-03-14T12:28:29;17.30;44.60
74101;DHT22;62462;52.530;21.682;2023-03-14T12:30:55;17.10;45.20
74101;DHT22;62462;52.530;21.682;2023-03-14T12:33:27;17.00;45.90
74101;DHT22;62462;52.530;21.682;2023-03-14T12:36:04;16.80;45.50
74101;DHT22;62462;52.530;21.682;2023-03-14T12:43:52;16.60;46.10
74101;DHT22;62462;52.530;21.682;2023-03-14T12:48:49;16.50;47.00
74101;DHT22;62462;52.530;21.682;2023-03-14T12:51:18;16.50;47.40
74101;DHT22;62462;52.530;21.682;2023-03-14T13:02:23;16.10;48.10
74101;DHT22;62462;52.530;21.682;2023-03-14T13:04:52;16.10;47.80
74101;DHT22;62462;52.530;21.682;2023-03-14T13:13:21;16.10;48.10
74101;DHT22;62462;52.530;21.682;2023-03-14T13:15:48;16.10;48.30
74101;DHT22;62462;52.530;21.682;2023-03-14T13:18:27;16.10;48.20
74101;DHT22;62462;52.530;21.682;2023-03-14T13:21:21;16.10;48.40
74101;DHT22;62462;52.530;21.682;2023-03-14T13:23:56;16.10;48.20
74101;DHT22;62462;52.530;21.682;2023-03-14T13:26:24;16.10;49.40
74101;DHT22;62462;52.530;21.682;2023-03-14T13:28:51;16.10;48.40
74101;DHT22;62462;52.530;21.682;2023-03-14T13:31:23;16.10;48.80
74101;DHT22;62462;52.530;21.682;2023-03-14T13:34:04;16.20;49.90
74101;DHT22;62462;52.530;21.682;2023-03-14T13:36:30;16.10;48.80
74101;DHT22;62462;52.530;21.682;2023-03-14T13:38:58;16.00;49.10
74101;DHT22;62462;52.530;21.682;2023-03-14T13:41:25;16.00;49.40
74101;DHT22;62462;52.530;21.682;2023-03-14T13:43:51;15.90;49.40
74101;DHT22;62462;52.530;21.682;2023-03-14T13:46:21;15.90;49.70
74101;DHT22;62462;52.530;21.682;2023-03-14T13:48:50;15.80;49.50
74101;DHT22;62462;52.530;21.682;2023-03-14T13:51:19;15.80;50.00
74101;DHT22;62462;52.530;21.682;2023-03-14T13:53:48;15.80;50.00
74101;DHT22;62462;52.530;21.682;2023-03-14T13:56:17;15.90;50.40
74101;DHT22;62462;52.530;21.682;2023-03-14T13:58:43;15.70;50.60
74101;DHT22;62462;52.530;21.682;2023-03-14T14:03:39;15.50;53.40
74101;DHT22;62462;52.530;21.682;2023-03-14T14:08:54;15.30;57.00
74101;DHT22;62462;52.530;21.682;2023-03-14T14:11:31;15.00;58.70
74101;DHT22;62462;52.530;21.682;2023-03-14T14:13:58;14.70;60.00
74101;DHT22;62462;52.530;21.682;2023-03-14T14:16:25;14.40;61.40
74101;DHT22;62462;52.530;21.682;2023-03-14T14:18:53;14.30;62.70
74101;DHT22;62462;52.530;21.682;2023-03-14T14:21:21;14.20;63.10
74101;DHT22;62462;52.530;21.682;2023-03-14T14:23:48;14.00;63.20
74101;DHT22;62462;52.530;21.682;2023-03-14T14:26:18;14.00;64.50
74101;DHT22;62462;52.530;21.682;2023-03-14T14:28:45;13.90;64.00
74101;DHT22;62462;52.530;21.682;2023-03-14T14:34:17;13.70;65.30
74101;DHT22;62462;52.530;21.682;2023-03-14T14:36:43;13.60;65.80
74101;DHT22;62462;52.530;21.682;2023-03-14T14:39:25;13.50;66.40
74101;DHT22;62462;52.530;21.682;2023-03-14T14:41:52;13.50;66.70
74101;DHT22;62462;52.530;21.682;2023-03-14T14:44:32;13.50;66.90
74101;DHT22;62462;52.530;21.682;2023-03-14T14:46:59;13.50;67.20
74101;DHT22;62462;52.530;21.682;2023-03-14T14:49:31;13.50;67.80
74101;DHT22;62462;52.530;21.682;2023-03-14T14:52:16;13.40;67.60
74101;DHT22;62462;52.530;21.682;2023-03-14T14:54:47;13.50;67.70
74101;DHT22;62462;52.530;21.682;2023-03-14T14:57:20;13.60;67.70
74101;DHT22;62462;52.530;21.682;2023-03-14T14:59:49;13.70;67.10
74101;DHT22;62462;52.530;21.682;2023-03-14T15:05:00;13.70;67.70
74101;DHT22;62462;52.530;21.682;2023-03-14T15:07:26;13.70;67.20
74101;DHT22;62462;52.530;21.682;2023-03-14T15:09:51;13.70;67.50
74101;DHT22;62462;52.530;21.682;2023-03-14T15:12:17;13.60;68.10
74101;DHT22;62462;52.530;21.682;2023-03-14T15:14:43;13.60;68.20
74101;DHT22;62462;52.530;21.682;2023-03-14T15:17:10;13.70;68.10
74101;DHT22;62462;52.530;21.682;2023-03-14T15:19:38;13.70;68.40
74101;DHT22;62462;52.530;21.682;2023-03-14T15:22:12;13.60;68.20
74101;DHT22;62462;52.530;21.682;2023-03-14T15:24:39;13.70;67.90
74101;DHT22;62462;52.530;21.682;2023-03-14T15:27:09;13.70;67.60
74101;DHT22;62462;52.530;21.682;2023-03-14T15:29:36;13.80;67.90
74101;DHT22;62462;52.530;21.682;2023-03-14T15:32:02;13.80;67.90
74101;DHT22;62462;52.530;21.682;2023-03-14T15:34:28;13.80;68.30
74101;DHT22;62462;52.530;21.682;2023-03-14T15:36:54;13.80;68.60
74101;DHT22;62462;52.530;21.682;2023-03-14T15:39:20;13.70;68.50
74101;DHT22;62462;52.530;21.682;2023-03-14T15:41:46;13.70;68.60
74101;DHT22;62462;52.530;21.682;2023-03-14T15:44:12;13.60;68.80
74101;DHT22;62462;52.530;21.682;2023-03-14T15:46:38;13.60;68.70
74101;DHT22;62462;52.530;21.682;2023-03-14T15:49:03;13.60;68.90
74101;DHT22;62462;52.530;21.682;2023-03-14T15:51:29;13.50;69.40
74101;DHT22;62462;52.530;21.682;2023-03-14T15:53:55;13.40;69.50
74101;DHT22;62462;52.530;21.682;2023-03-14T15:56:22;13.40;69.80
74101;DHT22;62462;52.530;21.682;2023-03-14T15:58:50;13.40;69.80
74101;DHT22;62462;52.530;21.682;2023-03-14T16:01:16;13.30;69.70
74101;DHT22;62462;52.530;21.682;2023-03-14T16:03:45;13.30;70.30
74101;DHT22;62462;52.530;21.682;2023-03-14T16:06:12;13.20;70.30
74101;DHT22;62462;52.530;21.682;2023-03-14T16:08:38;13.20;70.20
74101;DHT22;62462;52.530;21.682;2023-03-14T16:11:04;13.20;70.00
74101;DHT22;62462;52.530;21.682;2023-03-14T16:13:30;13.20;70.20
74101;DHT22;62462;52.530;21.682;2023-03-14T16:15:58;13.20;70.10
74101;DHT22;62462;52.530;21.682;2023-03-14T16:18:27;13.20;70.40
74101;DHT22;62462;52.530;21.682;2023-03-14T16:20:58;13.20;70.20
74101;DHT22;62462;52.530;21.682;2023-03-14T16:23:25;13.20;70.40
74101;DHT22;62462;52.530;21.682;2023-03-14T16:25:52;13.20;70.80
74101;DHT22;62462;52.530;21.682;2023-03-14T16:28:18;13.20;70.80
74101;DHT22;62462;52.530;21.682;2023-03-14T16:30:44;13.10;71.30
74101;DHT22;62462;52.530;21.682;2023-03-14T16:33:11;13.10;71.40
74101;DHT22;62462;52.530;21.682;2023-03-14T16:35:38;13.00;71.30
74101;DHT22;62462;52.530;21.682;2023-03-14T16:38:05;13.00;71.60
74101;DHT22;62462;52.530;21.682;2023-03-14T16:40:31;12.90;72.60
74101;DHT22;62462;52.530;21.682;2023-03-14T16:42:57;12.90;71.80
74101;DHT22;62462;52.530;21.682;2023-03-14T16:45:23;12.90;72.00
74101;DHT22;62462;52.530;21.682;2023-03-14T16:47:49;12.80;73.10